sensor_id;sensor_type;location;lat;lon;timestamp;P1;durP1;ratioP1;P2;durP2;ratioP2
76667;SDS011;65585;51.166;16.922;2023-05-15T00:01:29;19.92;;;15.32;;
76667;SDS011;65585;51.166;16.922;2023-05-15T00:03:56;22.45;;;16.85;;
76667;SDS011;65585;51.166;16.922;2023-05-15T00:06:22;21.25;;;15.65;;
76667;SDS011;65585;51.166;16.922;2023-05-15T00:08:48;21.23;;;15.73;;
76667;SDS011;65585;51.166;16.922;2023-05-15T00:11:14;21.70;;;15.98;;
76667;SDS011;65585;51.166;16.922;2023-05-15T00:13:40;24.85;;;16.80;;
76667;SDS011;65585;51.166;16.922;2023-05-15T00:16:09;27.70;;;18.15;;
76667;SDS011;65585;51.166;16.922;2023-05-15T00:18:35;27.98;;;17.38;;
76667;SDS011;65585;51.166;16.922;2023-05-15T00:21:01;27.48;;;17.38;;
76667;SDS011;65585;51.166;16.922;2023-05-15T00:23:29;25.25;;;18.88;;
76667;SDS011;65585;51.166;16.922;2023-05-15T00:25:56;30.25;;;18.27;;
76667;SDS011;65585;51.166;16.922;2023-05-15T00:28:21;23.98;;;17.33;;
76667;SDS011;65585;51.166;16.922;2023-05-15T00:30:48;26.75;;;18.30;;
76667;SDS011;65585;51.166;16.922;2023-05-15T00:33:14;27.70;;;19.13;;
76667;SDS011;65585;51.166;16.922;2023-05-15T00:35:40;24.40;;;18.48;;
76667;SDS011;65585;51.166;16.922;2023-05-15T00:38:06;28.85;;;18.20;;
76667;SDS011;65585;51.166;16.922;2023-05-15T00:40:32;24.00;;;16.63;;
76667;SDS011;65585;51.166;16.922;2023-05-15T00:42:58;22.40;;;16.77;;
76667;SDS011;65585;51.166;16.922;2023-05-15T00:45:25;22.23;;;15.82;;
76667;SDS011;65585;51.166;16.922;2023-05-15T00:47:52;22.17;;;15.75;;
76667;SDS011;65585;51.166;16.922;2023-05-15T00:50:19;21.42;;;15.43;;
76667;SDS011;65585;51.166;16.922;2023-05-15T00:52:45;22.38;;;16.27;;
76667;SDS011;65585;51.166;16.922;2023-05-15T00:55:12;29.15;;;18.52;;
76667;SDS011;65585;51.166;16.922;2023-05-15T00:57:39;27.35;;;18.27;;
76667;SDS011;65585;51.166;16.922;2023-05-15T01:00:07;27.77;;;18.02;;
76667;SDS011;65585;51.166;16.922;2023-05-15T01:02:35;24.23;;;16.70;;
76667;SDS011;65585;51.166;16.922;2023-05-15T01:05:02;23.92;;;16.63;;
76667;SDS011;65585;51.166;16.922;2023-05-15T01:07:29;24.23;;;17.10;;
76667;SDS011;65585;51.166;16.922;2023-05-15T01:09:57;21.20;;;14.70;;
76667;SDS011;65585;51.166;16.922;2023-05-15T01:12:24;20.48;;;14.68;;
76667;SDS011;65585;51.166;16.922;2023-05-15T01:14:51;22.35;;;15.57;;
76667;SDS011;65585;51.166;16.922;2023-05-15T01:17:17;21.30;;;14.57;;
76667;SDS011;65585;51.166;16.922;2023-05-15T01:19:43;20.25;;;14.02;;
76667;SDS011;65585;51.166;16.922;2023-05-15T01:22:18;18.83;;;15.00;;
76667;SDS011;65585;51.166;16.922;2023-05-15T01:30:21;20.38;;;14.10;;
76667;SDS011;65585;51.166;16.922;2023-05-15T01:38:48;18.83;;;12.38;;
76667;SDS011;65585;51.166;16.922;2023-05-15T01:41:05;17.10;;;12.77;;
76667;SDS011;65585;51.166;16.922;2023-05-15T01:43:38;17.45;;;12.27;;
76667;SDS011;65585;51.166;16.922;2023-05-15T01:46:05;16.17;;;11.43;;
76667;SDS011;65585;51.166;16.922;2023-05-15T01:48:32;17.75;;;10.93;;
76667;SDS011;65585;51.166;16.922;2023-05-15T01:51:00;15.55;;;10.45;;
76667;SDS011;65585;51.166;16.922;2023-05-15T01:53:31;12.68;;;10.05;;
76667;SDS011;65585;51.166;16.922;2023-05-15T01:55:58;15.15;;;10.57;;
76667;SDS011;65585;51.166;16.922;2023-05-15T01:58:24;13.98;;;10.35;;
76667;SDS011;65585;51.166;16.922;2023-05-15T02:00:51;14.35;;;10.43;;
76667;SDS011;65585;51.166;16.922;2023-05-15T02:03:18;14.40;;;11.05;;
76667;SDS011;65585;51.166;16.922;2023-05-15T02:05:45;15.27;;;10.57;;
76667;SDS011;65585;51.166;16.922;2023-05-15T02:08:11;14.75;;;10.90;;
76667;SDS011;65585;51.166;16.922;2023-05-15T02:10:38;13.43;;;9.85;;
76667;SDS011;65585;51.166;16.922;2023-05-15T02:13:06;13.93;;;10.82;;
76667;SDS011;65585;51.166;16.922;2023-05-15T02:15:33;12.75;;;9.23;;
76667;SDS011;65585;51.166;16.922;2023-05-15T02:18:00;12.35;;;9.55;;
76667;SDS011;65585;51.166;16.922;2023-05-15T02:20:26;12.80;;;9.05;;
76667;SDS011;65585;51.166;16.922;2023-05-15T02:22:52;14.18;;;10.18;;
76667;SDS011;65585;51.166;16.922;2023-05-15T02:25:19;11.48;;;9.23;;
76667;SDS011;65585;51.166;16.922;2023-05-15T02:27:57;13.07;;;9.00;;
76667;SDS011;65585;51.166;16.922;2023-05-15T02:30:41;13.20;;;9.18;;
76667;SDS011;65585;51.166;16.922;2023-05-15T02:33:19;11.23;;;9.02;;
76667;SDS011;65585;51.166;16.922;2023-05-15T02:35:56;11.45;;;8.38;;
76667;SDS011;65585;51.166;16.922;2023-05-15T02:38:28;13.68;;;9.20;;
76667;SDS011;65585;51.166;16.922;2023-05-15T02:40:55;13.02;;;8.80;;
76667;SDS011;65585;51.166;16.922;2023-05-15T02:43:21;13.55;;;8.98;;
76667;SDS011;65585;51.166;16.922;2023-05-15T02:45:47;11.48;;;8.75;;
76667;SDS011;65585;51.166;16.922;2023-05-15T02:48:14;12.48;;;9.38;;
76667;SDS011;65585;51.166;16.922;2023-05-15T02:50:42;10.70;;;8.38;;
76667;SDS011;65585;51.166;16.922;2023-05-15T02:53:08;12.07;;;8.60;;
76667;SDS011;65585;51.166;16.922;2023-05-15T02:55:35;11.30;;;8.57;;
76667;SDS011;65585;51.166;16.922;2023-05-15T02:58:02;13.30;;;8.35;;
76667;SDS011;65585;51.166;16.922;2023-05-15T03:00:29;10.93;;;8.70;;
76667;SDS011;65585;51.166;16.922;2023-05-15T03:02:55;13.10;;;8.82;;
76667;SDS011;65585;51.166;16.922;2023-05-15T03:05:21;10.15;;;7.85;;
76667;SDS011;65585;51.166;16.922;2023-05-15T03:07:47;10.93;;;8.27;;
76667;SDS011;65585;51.166;16.922;2023-05-15T03:10:13;11.60;;;8.25;;
76667;SDS011;65585;51.166;16.922;2023-05-15T03:12:40;9.27;;;7.68;;
76667;SDS011;65585;51.166;16.922;2023-05-15T03:15:06;12.27;;;7.95;;
76667;SDS011;65585;51.166;16.922;2023-05-15T03:17:32;14.00;;;8.75;;
76667;SDS011;65585;51.166;16.922;2023-05-15T03:19:59;11.45;;;8.05;;
76667;SDS011;65585;51.166;16.922;2023-05-15T03:22:25;10.20;;;7.32;;
76667;SDS011;65585;51.166;16.922;2023-05-15T03:24:51;9.45;;;7.35;;
76667;SDS011;65585;51.166;16.922;2023-05-15T03:27:17;9.90;;;7.72;;
76667;SDS011;65585;51.166;16.922;2023-05-15T03:29:43;11.15;;;8.38;;
76667;SDS011;65585;51.166;16.922;2023-05-15T03:32:09;10.15;;;7.90;;
76667;SDS011;65585;51.166;16.922;2023-05-15T03:34:35;11.05;;;8.60;;
76667;SDS011;65585;51.166;16.922;2023-05-15T03:37:01;10.48;;;8.23;;
76667;SDS011;65585;51.166;16.922;2023-05-15T03:39:28;13.90;;;10.20;;
76667;SDS011;65585;51.166;16.922;2023-05-15T03:41:53;13.13;;;9.32;;
76667;SDS011;65585;51.166;16.922;2023-05-15T03:44:20;14.77;;;9.57;;
76667;SDS011;65585;51.166;16.922;2023-05-15T03:46:45;13.23;;;10.07;;
76667;SDS011;65585;51.166;16.922;2023-05-15T03:49:12;17.92;;;10.60;;
76667;SDS011;65585;51.166;16.922;2023-05-15T03:51:38;14.18;;;10.18;;
76667;SDS011;65585;51.166;16.922;2023-05-15T03:54:04;14.40;;;10.75;;
76667;SDS011;65585;51.166;16.922;2023-05-15T03:56:30;14.70;;;10.88;;
76667;SDS011;65585;51.166;16.922;2023-05-15T03:58:57;13.48;;;9.82;;
76667;SDS011;65585;51.166;16.922;2023-05-15T04:01:23;15.32;;;10.80;;
76667;SDS011;65585;51.166;16.922;2023-05-15T04:03:50;13.00;;;9.77;;
76667;SDS011;65585;51.166;16.922;2023-05-15T04:06:16;15.38;;;11.15;;
76667;SDS011;65585;51.166;16.922;2023-05-15T04:08:42;16.77;;;10.77;;
76667;SDS011;65585;51.166;16.922;2023-05-15T04:11:09;16.08;;;10.95;;
76667;SDS011;65585;51.166;16.922;2023-05-15T04:13:36;15.50;;;10.52;;
76667;SDS011;65585;51.166;16.922;2023-05-15T04:16:02;18.90;;;11.73;;
76667;SDS011;65585;51.166;16.922;2023-05-15T04:18:29;17.02;;;10.77;;
76667;SDS011;65585;51.166;16.922;2023-05-15T04:20:55;15.13;;;10.77;;
76667;SDS011;65585;51.166;16.922;2023-05-15T04:23:21;15.38;;;11.27;;
76667;SDS011;65585;51.166;16.922;2023-05-15T04:25:47;15.25;;;10.80;;
76667;SDS011;65585;51.166;16.922;2023-05-15T04:28:14;15.00;;;10.77;;
76667;SDS011;65585;51.166;16.922;2023-05-15T04:30:40;15.20;;;11.15;;
76667;SDS011;65585;51.166;16.922;2023-05-15T04:33:06;15.82;;;11.63;;
76667;SDS011;65585;51.166;16.922;2023-05-15T04:35:32;15.48;;;11.85;;
76667;SDS011;65585;51.166;16.922;2023-05-15T04:37:59;17.70;;;12.32;;
76667;SDS011;65585;51.166;16.922;2023-05-15T04:40:25;16.42;;;11.73;;
76667;SDS011;65585;51.166;16.922;2023-05-15T04:42:51;16.40;;;12.07;;
76667;SDS011;65585;51.166;16.922;2023-05-15T04:45:17;16.50;;;11.25;;
76667;SDS011;65585;51.166;16.922;2023-05-15T04:47:43;19.30;;;12.27;;
76667;SDS011;65585;51.166;16.922;2023-05-15T04:50:09;15.80;;;11.88;;
76667;SDS011;65585;51.166;16.922;2023-05-15T04:52:35;19.73;;;12.40;;
76667;SDS011;65585;51.166;16.922;2023-05-15T04:55:01;17.55;;;11.95;;
76667;SDS011;65585;51.166;16.922;2023-05-15T04:57:28;17.33;;;12.45;;
76667;SDS011;65585;51.166;16.922;2023-05-15T04:59:54;17.92;;;12.07;;
76667;SDS011;65585;51.166;16.922;2023-05-15T05:02:22;16.35;;;12.48;;
76667;SDS011;65585;51.166;16.922;2023-05-15T05:04:49;15.85;;;11.35;;
76667;SDS011;65585;51.166;16.922;2023-05-15T05:07:16;17.20;;;11.13;;
76667;SDS011;65585;51.166;16.922;2023-05-15T05:09:42;16.63;;;11.35;;
76667;SDS011;65585;51.166;16.922;2023-05-15T05:12:08;15.38;;;11.25;;
76667;SDS011;65585;51.166;16.922;2023-05-15T05:14:34;14.88;;;11.07;;
76667;SDS011;65585;51.166;16.922;2023-05-15T05:17:01;17.92;;;11.07;;
76667;SDS011;65585;51.166;16.922;2023-05-15T05:19:28;17.13;;;10.82;;
76667;SDS011;65585;51.166;16.922;2023-05-15T05:21:54;14.88;;;10.88;;
76667;SDS011;65585;51.166;16.922;2023-05-15T05:24:22;15.35;;;10.90;;
76667;SDS011;65585;51.166;16.922;2023-05-15T05:26:49;13.23;;;10.68;;
76667;SDS011;65585;51.166;16.922;2023-05-15T05:29:15;14.25;;;10.07;;
76667;SDS011;65585;51.166;16.922;2023-05-15T05:31:42;13.50;;;9.98;;
76667;SDS011;65585;51.166;16.922;2023-05-15T05:34:07;13.55;;;10.25;;
76667;SDS011;65585;51.166;16.922;2023-05-15T05:36:34;15.15;;;10.75;;
76667;SDS011;65585;51.166;16.922;2023-05-15T05:39:01;15.75;;;10.32;;
76667;SDS011;65585;51.166;16.922;2023-05-15T05:41:29;14.60;;;11.10;;
76667;SDS011;65585;51.166;16.922;2023-05-15T05:43:55;14.95;;;10.55;;
76667;SDS011;65585;51.166;16.922;2023-05-15T05:46:21;14.52;;;10.63;;
76667;SDS011;65585;51.166;16.922;2023-05-15T05:48:47;15.10;;;10.82;;
76667;SDS011;65585;51.166;16.922;2023-05-15T05:51:14;12.85;;;10.00;;
76667;SDS011;65585;51.166;16.922;2023-05-15T05:53:40;13.48;;;10.05;;
76667;SDS011;65585;51.166;16.922;2023-05-15T05:56:06;12.88;;;9.15;;
76667;SDS011;65585;51.166;16.922;2023-05-15T05:58:32;14.82;;;9.60;;
76667;SDS011;65585;51.166;16.922;2023-05-15T06:00:59;12.85;;;10.18;;
76667;SDS011;65585;51.166;16.922;2023-05-15T06:03:25;12.23;;;9.60;;
76667;SDS011;65585;51.166;16.922;2023-05-15T06:05:52;11.63;;;9.27;;
76667;SDS011;65585;51.166;16.922;2023-05-15T06:08:18;13.30;;;9.30;;
76667;SDS011;65585;51.166;16.922;2023-05-15T06:10:45;12.40;;;9.35;;
76667;SDS011;65585;51.166;16.922;2023-05-15T06:13:11;14.52;;;10.63;;
76667;SDS011;65585;51.166;16.922;2023-05-15T06:15:39;13.50;;;10.18;;
76667;SDS011;65585;51.166;16.922;2023-05-15T06:18:06;12.73;;;9.60;;
76667;SDS011;65585;51.166;16.922;2023-05-15T06:20:32;12.82;;;9.70;;
76667;SDS011;65585;51.166;16.922;2023-05-15T06:22:58;12.43;;;9.32;;
76667;SDS011;65585;51.166;16.922;2023-05-15T06:25:24;11.60;;;8.93;;
76667;SDS011;65585;51.166;16.922;2023-05-15T06:27:50;15.00;;;9.88;;
76667;SDS011;65585;51.166;16.922;2023-05-15T06:30:16;12.45;;;9.43;;
76667;SDS011;65585;51.166;16.922;2023-05-15T06:32:42;11.25;;;8.57;;
76667;SDS011;65585;51.166;16.922;2023-05-15T06:35:09;11.18;;;8.50;;
76667;SDS011;65585;51.166;16.922;2023-05-15T06:37:35;10.88;;;8.45;;
76667;SDS011;65585;51.166;16.922;2023-05-15T06:40:02;9.73;;;8.25;;
76667;SDS011;65585;51.166;16.922;2023-05-15T06:42:29;11.05;;;8.70;;
76667;SDS011;65585;51.166;16.922;2023-05-15T06:44:56;9.88;;;8.50;;
76667;SDS011;65585;51.166;16.922;2023-05-15T06:47:22;11.05;;;8.18;;
76667;SDS011;65585;51.166;16.922;2023-05-15T06:49:49;12.38;;;8.18;;
76667;SDS011;65585;51.166;16.922;2023-05-15T06:52:15;13.65;;;8.60;;
76667;SDS011;65585;51.166;16.922;2023-05-15T06:54:41;12.65;;;8.98;;
76667;SDS011;65585;51.166;16.922;2023-05-15T06:57:07;11.38;;;8.75;;
76667;SDS011;65585;51.166;16.922;2023-05-15T06:59:34;10.13;;;7.85;;
76667;SDS011;65585;51.166;16.922;2023-05-15T07:02:03;9.80;;;7.70;;
76667;SDS011;65585;51.166;16.922;2023-05-15T07:04:29;10.82;;;7.55;;
76667;SDS011;65585;51.166;16.922;2023-05-15T07:06:56;10.25;;;7.63;;
76667;SDS011;65585;51.166;16.922;2023-05-15T07:09:22;8.63;;;7.35;;
76667;SDS011;65585;51.166;16.922;2023-05-15T07:11:49;9.82;;;7.72;;
76667;SDS011;65585;51.166;16.922;2023-05-15T07:14:15;8.85;;;6.80;;
76667;SDS011;65585;51.166;16.922;2023-05-15T07:16:41;9.60;;;7.63;;
76667;SDS011;65585;51.166;16.922;2023-05-15T07:19:08;9.98;;;7.95;;
76667;SDS011;65585;51.166;16.922;2023-05-15T07:21:34;9.50;;;8.05;;
76667;SDS011;65585;51.166;16.922;2023-05-15T07:24:00;9.57;;;7.70;;
76667;SDS011;65585;51.166;16.922;2023-05-15T07:26:26;11.05;;;8.18;;
76667;SDS011;65585;51.166;16.922;2023-05-15T07:28:52;10.93;;;7.45;;
76667;SDS011;65585;51.166;16.922;2023-05-15T07:31:19;10.05;;;7.60;;
76667;SDS011;65585;51.166;16.922;2023-05-15T07:33:45;10.82;;;8.10;;
76667;SDS011;65585;51.166;16.922;2023-05-15T07:36:11;9.38;;;7.72;;
76667;SDS011;65585;51.166;16.922;2023-05-15T07:38:37;8.95;;;6.65;;
76667;SDS011;65585;51.166;16.922;2023-05-15T07:41:03;9.40;;;7.68;;
76667;SDS011;65585;51.166;16.922;2023-05-15T07:43:30;10.02;;;7.80;;
76667;SDS011;65585;51.166;16.922;2023-05-15T07:45:56;10.20;;;8.15;;
76667;SDS011;65585;51.166;16.922;2023-05-15T07:48:22;12.57;;;7.05;;
76667;SDS011;65585;51.166;16.922;2023-05-15T07:50:48;11.63;;;6.90;;
76667;SDS011;65585;51.166;16.922;2023-05-15T07:53:16;8.25;;;7.22;;
76667;SDS011;65585;51.166;16.922;2023-05-15T07:55:43;8.27;;;6.90;;
76667;SDS011;65585;51.166;16.922;2023-05-15T07:58:09;11.57;;;7.72;;
76667;SDS011;65585;51.166;16.922;2023-05-15T08:00:35;8.95;;;7.63;;
76667;SDS011;65585;51.166;16.922;2023-05-15T08:03:01;7.85;;;6.85;;
76667;SDS011;65585;51.166;16.922;2023-05-15T08:05:27;8.93;;;7.13;;
76667;SDS011;65585;51.166;16.922;2023-05-15T08:10:21;8.23;;;7.25;;
76667;SDS011;65585;51.166;16.922;2023-05-15T08:12:48;9.45;;;7.25;;
76667;SDS011;65585;51.166;16.922;2023-05-15T08:15:15;8.93;;;7.70;;
76667;SDS011;65585;51.166;16.922;2023-05-15T08:17:41;8.82;;;7.85;;
76667;SDS011;65585;51.166;16.922;2023-05-15T08:20:08;10.35;;;7.55;;
76667;SDS011;65585;51.166;16.922;2023-05-15T08:22:34;11.50;;;7.68;;
76667;SDS011;65585;51.166;16.922;2023-05-15T08:25:00;10.20;;;7.28;;
76667;SDS011;65585;51.166;16.922;2023-05-15T08:27:28;9.10;;;7.90;;
76667;SDS011;65585;51.166;16.922;2023-05-15T08:29:54;10.73;;;8.63;;
76667;SDS011;65585;51.166;16.922;2023-05-15T08:32:20;11.50;;;8.77;;
76667;SDS011;65585;51.166;16.922;2023-05-15T08:34:46;9.20;;;7.38;;
76667;SDS011;65585;51.166;16.922;2023-05-15T08:37:13;8.95;;;8.05;;
76667;SDS011;65585;51.166;16.922;2023-05-15T08:39:39;10.20;;;7.88;;
76667;SDS011;65585;51.166;16.922;2023-05-15T08:42:23;10.45;;;8.55;;
76667;SDS011;65585;51.166;16.922;2023-05-15T08:44:49;14.02;;;11.07;;
76667;SDS011;65585;51.166;16.922;2023-05-15T08:47:17;12.50;;;9.88;;
76667;SDS011;65585;51.166;16.922;2023-05-15T08:52:31;15.10;;;11.40;;
76667;SDS011;65585;51.166;16.922;2023-05-15T08:55:00;12.02;;;9.70;;
76667;SDS011;65585;51.166;16.922;2023-05-15T08:57:28;12.65;;;10.13;;
76667;SDS011;65585;51.166;16.922;2023-05-15T08:59:55;13.27;;;10.07;;
76667;SDS011;65585;51.166;16.922;2023-05-15T09:02:21;9.98;;;8.50;;
76667;SDS011;65585;51.166;16.922;2023-05-15T09:04:49;12.13;;;10.13;;
76667;SDS011;65585;51.166;16.922;2023-05-15T09:07:16;12.00;;;9.60;;
76667;SDS011;65585;51.166;16.922;2023-05-15T09:09:43;13.38;;;9.95;;
76667;SDS011;65585;51.166;16.922;2023-05-15T09:12:09;10.25;;;8.88;;
76667;SDS011;65585;51.166;16.922;2023-05-15T09:14:36;11.27;;;9.02;;
76667;SDS011;65585;51.166;16.922;2023-05-15T09:17:02;12.23;;;9.98;;
76667;SDS011;65585;51.166;16.922;2023-05-15T09:19:28;10.73;;;8.68;;
76667;SDS011;65585;51.166;16.922;2023-05-15T09:21:54;11.63;;;9.65;;
76667;SDS011;65585;51.166;16.922;2023-05-15T09:24:21;11.18;;;9.43;;
76667;SDS011;65585;51.166;16.922;2023-05-15T09:27:02;12.48;;;9.77;;
76667;SDS011;65585;51.166;16.922;2023-05-15T09:29:31;14.80;;;10.60;;
76667;SDS011;65585;51.166;16.922;2023-05-15T09:32:05;11.90;;;9.88;;
76667;SDS011;65585;51.166;16.922;2023-05-15T09:34:34;11.63;;;9.02;;
76667;SDS011;65585;51.166;16.922;2023-05-15T09:37:02;12.32;;;9.13;;
76667;SDS011;65585;51.166;16.922;2023-05-15T09:39:29;12.18;;;9.35;;
76667;SDS011;65585;51.166;16.922;2023-05-15T09:42:11;11.15;;;8.88;;
76667;SDS011;65585;51.166;16.922;2023-05-15T09:44:42;11.38;;;8.68;;
76667;SDS011;65585;51.166;16.922;2023-05-15T09:47:09;9.88;;;8.20;;
76667;SDS011;65585;51.166;16.922;2023-05-15T09:49:37;9.68;;;8.18;;
76667;SDS011;65585;51.166;16.922;2023-05-15T09:52:06;9.93;;;8.48;;
76667;SDS011;65585;51.166;16.922;2023-05-15T09:54:33;11.27;;;8.50;;
76667;SDS011;65585;51.166;16.922;2023-05-15T09:57:07;11.13;;;8.32;;
76667;SDS011;65585;51.166;16.922;2023-05-15T09:59:34;8.93;;;6.93;;
76667;SDS011;65585;51.166;16.922;2023-05-15T10:02:01;12.63;;;8.73;;
76667;SDS011;65585;51.166;16.922;2023-05-15T10:04:32;13.07;;;9.43;;
76667;SDS011;65585;51.166;16.922;2023-05-15T10:07:01;8.10;;;7.18;;
76667;SDS011;65585;51.166;16.922;2023-05-15T10:09:28;11.98;;;9.00;;
76667;SDS011;65585;51.166;16.922;2023-05-15T10:11:57;9.50;;;7.90;;
76667;SDS011;65585;51.166;16.922;2023-05-15T10:14:23;8.73;;;7.05;;
76667;SDS011;65585;51.166;16.922;2023-05-15T10:16:51;9.27;;;7.07;;
76667;SDS011;65585;51.166;16.922;2023-05-15T10:19:18;8.18;;;6.63;;
76667;SDS011;65585;51.166;16.922;2023-05-15T10:21:48;9.35;;;6.85;;
76667;SDS011;65585;51.166;16.922;2023-05-15T10:24:15;9.75;;;6.93;;
76667;SDS011;65585;51.166;16.922;2023-05-15T10:26:41;8.57;;;6.50;;
76667;SDS011;65585;51.166;16.922;2023-05-15T10:29:08;8.52;;;6.50;;
76667;SDS011;65585;51.166;16.922;2023-05-15T10:31:38;6.20;;;5.20;;
76667;SDS011;65585;51.166;16.922;2023-05-15T10:34:05;6.80;;;5.40;;
76667;SDS011;65585;51.166;16.922;2023-05-15T10:36:33;6.20;;;5.15;;
76667;SDS011;65585;51.166;16.922;2023-05-15T10:39:00;7.22;;;5.57;;
76667;SDS011;65585;51.166;16.922;2023-05-15T10:41:28;7.60;;;6.05;;
76667;SDS011;65585;51.166;16.922;2023-05-15T10:43:58;9.45;;;6.30;;
76667;SDS011;65585;51.166;16.922;2023-05-15T10:46:26;7.97;;;6.03;;
76667;SDS011;65585;51.166;16.922;2023-05-15T10:48:53;9.10;;;6.53;;
76667;SDS011;65585;51.166;16.922;2023-05-15T10:51:37;9.82;;;6.90;;
76667;SDS011;65585;51.166;16.922;2023-05-15T10:54:04;9.05;;;7.13;;
76667;SDS011;65585;51.166;16.922;2023-05-15T10:56:36;8.80;;;7.30;;
76667;SDS011;65585;51.166;16.922;2023-05-15T10:59:06;7.20;;;6.43;;
76667;SDS011;65585;51.166;16.922;2023-05-15T11:01:35;8.25;;;6.75;;
76667;SDS011;65585;51.166;16.922;2023-05-15T11:06:34;8.30;;;7.40;;
76667;SDS011;65585;51.166;16.922;2023-05-15T11:09:49;8.15;;;6.18;;
76667;SDS011;65585;51.166;16.922;2023-05-15T11:12:02;7.97;;;7.18;;
76667;SDS011;65585;51.166;16.922;2023-05-15T11:14:36;6.78;;;6.00;;
76667;SDS011;65585;51.166;16.922;2023-05-15T11:17:04;7.22;;;6.25;;
76667;SDS011;65585;51.166;16.922;2023-05-15T11:19:35;6.88;;;5.53;;
76667;SDS011;65585;51.166;16.922;2023-05-15T11:25:05;6.97;;;5.20;;
76667;SDS011;65585;51.166;16.922;2023-05-15T11:30:08;6.25;;;5.20;;
76667;SDS011;65585;51.166;16.922;2023-05-15T11:35:21;7.22;;;6.03;;
76667;SDS011;65585;51.166;16.922;2023-05-15T11:37:53;7.18;;;6.18;;
76667;SDS011;65585;51.166;16.922;2023-05-15T11:40:24;8.50;;;6.85;;
76667;SDS011;65585;51.166;16.922;2023-05-15T11:42:57;8.27;;;6.75;;
76667;SDS011;65585;51.166;16.922;2023-05-15T11:45:29;7.95;;;7.15;;
76667;SDS011;65585;51.166;16.922;2023-05-15T11:48:01;8.57;;;7.60;;
76667;SDS011;65585;51.166;16.922;2023-05-15T11:50:29;10.13;;;7.78;;
76667;SDS011;65585;51.166;16.922;2023-05-15T11:53:00;8.50;;;7.28;;
76667;SDS011;65585;51.166;16.922;2023-05-15T11:55:28;8.40;;;7.00;;
76667;SDS011;65585;51.166;16.922;2023-05-15T11:57:56;9.30;;;6.90;;
76667;SDS011;65585;51.166;16.922;2023-05-15T12:00:22;7.55;;;6.70;;
76667;SDS011;65585;51.166;16.922;2023-05-15T12:02:49;7.03;;;5.82;;
76667;SDS011;65585;51.166;16.922;2023-05-15T12:05:15;6.63;;;5.55;;
76667;SDS011;65585;51.166;16.922;2023-05-15T12:07:41;5.55;;;4.97;;
76667;SDS011;65585;51.166;16.922;2023-05-15T12:10:08;5.55;;;4.38;;
76667;SDS011;65585;51.166;16.922;2023-05-15T12:12:41;5.80;;;4.57;;
76667;SDS011;65585;51.166;16.922;2023-05-15T12:15:08;5.07;;;4.00;;
76667;SDS011;65585;51.166;16.922;2023-05-15T12:17:36;6.45;;;4.75;;
76667;SDS011;65585;51.166;16.922;2023-05-15T12:20:10;7.85;;;4.85;;
76667;SDS011;65585;51.166;16.922;2023-05-15T12:22:40;5.53;;;4.72;;
76667;SDS011;65585;51.166;16.922;2023-05-15T12:25:07;6.50;;;5.38;;
76667;SDS011;65585;51.166;16.922;2023-05-15T12:27:34;5.93;;;5.32;;
76667;SDS011;65585;51.166;16.922;2023-05-15T12:30:00;6.68;;;5.97;;
76667;SDS011;65585;51.166;16.922;2023-05-15T12:32:29;5.88;;;5.28;;
76667;SDS011;65585;51.166;16.922;2023-05-15T12:34:56;5.72;;;4.80;;
76667;SDS011;65585;51.166;16.922;2023-05-15T12:37:22;6.53;;;4.75;;
76667;SDS011;65585;51.166;16.922;2023-05-15T12:40:09;5.97;;;5.38;;
76667;SDS011;65585;51.166;16.922;2023-05-15T12:42:37;7.70;;;5.10;;
76667;SDS011;65585;51.166;16.922;2023-05-15T12:45:10;5.97;;;5.13;;
76667;SDS011;65585;51.166;16.922;2023-05-15T12:47:44;5.40;;;4.85;;
76667;SDS011;65585;51.166;16.922;2023-05-15T12:50:20;5.00;;;4.15;;
76667;SDS011;65585;51.166;16.922;2023-05-15T12:55:17;4.05;;;3.65;;
76667;SDS011;65585;51.166;16.922;2023-05-15T12:57:48;4.40;;;3.97;;
76667;SDS011;65585;51.166;16.922;2023-05-15T13:00:14;4.85;;;4.35;;
76667;SDS011;65585;51.166;16.922;2023-05-15T13:02:44;6.15;;;4.30;;
76667;SDS011;65585;51.166;16.922;2023-05-15T13:05:10;4.82;;;4.30;;
76667;SDS011;65585;51.166;16.922;2023-05-15T13:07:39;4.70;;;4.13;;
76667;SDS011;65585;51.166;16.922;2023-05-15T13:10:06;7.00;;;4.68;;
76667;SDS011;65585;51.166;16.922;2023-05-15T13:12:43;9.52;;;4.80;;
76667;SDS011;65585;51.166;16.922;2023-05-15T13:18:06;6.28;;;5.30;;
76667;SDS011;65585;51.166;16.922;2023-05-15T13:20:37;7.47;;;5.20;;
76667;SDS011;65585;51.166;16.922;2023-05-15T13:23:05;5.70;;;5.10;;
76667;SDS011;65585;51.166;16.922;2023-05-15T13:25:31;5.78;;;5.15;;
76667;SDS011;65585;51.166;16.922;2023-05-15T13:27:59;6.07;;;4.93;;
76667;SDS011;65585;51.166;16.922;2023-05-15T13:30:29;7.18;;;5.88;;
76667;SDS011;65585;51.166;16.922;2023-05-15T13:32:57;6.50;;;5.50;;
76667;SDS011;65585;51.166;16.922;2023-05-15T13:35:23;8.80;;;6.75;;
76667;SDS011;65585;51.166;16.922;2023-05-15T13:37:49;8.43;;;7.05;;
76667;SDS011;65585;51.166;16.922;2023-05-15T13:40:15;9.05;;;7.57;;
76667;SDS011;65585;51.166;16.922;2023-05-15T13:42:42;9.73;;;7.50;;
76667;SDS011;65585;51.166;16.922;2023-05-15T13:45:09;11.40;;;7.75;;
76667;SDS011;65585;51.166;16.922;2023-05-15T13:47:36;9.57;;;8.43;;
76667;SDS011;65585;51.166;16.922;2023-05-15T13:50:06;8.50;;;7.03;;
76667;SDS011;65585;51.166;16.922;2023-05-15T13:52:33;8.25;;;6.90;;
76667;SDS011;65585;51.166;16.922;2023-05-15T13:54:59;6.85;;;6.15;;
76667;SDS011;65585;51.166;16.922;2023-05-15T13:57:26;8.05;;;6.57;;
76667;SDS011;65585;51.166;16.922;2023-05-15T13:59:52;8.20;;;7.03;;
76667;SDS011;65585;51.166;16.922;2023-05-15T14:02:18;7.97;;;5.95;;
76667;SDS011;65585;51.166;16.922;2023-05-15T14:04:45;7.13;;;5.93;;
76667;SDS011;65585;51.166;16.922;2023-05-15T14:07:11;5.82;;;5.22;;
76667;SDS011;65585;51.166;16.922;2023-05-15T14:09:37;5.78;;;5.18;;
76667;SDS011;65585;51.166;16.922;2023-05-15T14:12:04;5.70;;;5.07;;
76667;SDS011;65585;51.166;16.922;2023-05-15T14:14:30;5.25;;;4.63;;
76667;SDS011;65585;51.166;16.922;2023-05-15T14:16:56;5.75;;;4.47;;
76667;SDS011;65585;51.166;16.922;2023-05-15T14:19:22;6.45;;;4.85;;
76667;SDS011;65585;51.166;16.922;2023-05-15T14:21:48;5.28;;;4.57;;
76667;SDS011;65585;51.166;16.922;2023-05-15T14:24:14;6.22;;;4.78;;
76667;SDS011;65585;51.166;16.922;2023-05-15T14:26:40;5.55;;;4.82;;
76667;SDS011;65585;51.166;16.922;2023-05-15T14:29:08;6.45;;;5.05;;
76667;SDS011;65585;51.166;16.922;2023-05-15T14:31:35;6.60;;;5.10;;
76667;SDS011;65585;51.166;16.922;2023-05-15T14:34:00;5.95;;;5.35;;
76667;SDS011;65585;51.166;16.922;2023-05-15T14:36:27;6.55;;;5.68;;
76667;SDS011;65585;51.166;16.922;2023-05-15T14:38:52;5.93;;;5.22;;
76667;SDS011;65585;51.166;16.922;2023-05-15T14:41:19;4.45;;;4.00;;
76667;SDS011;65585;51.166;16.922;2023-05-15T14:43:46;5.68;;;4.82;;
76667;SDS011;65585;51.166;16.922;2023-05-15T14:46:12;5.03;;;4.25;;
76667;SDS011;65585;51.166;16.922;2023-05-15T14:48:38;6.57;;;4.38;;
76667;SDS011;65585;51.166;16.922;2023-05-15T14:51:04;4.82;;;3.70;;
76667;SDS011;65585;51.166;16.922;2023-05-15T14:53:30;4.63;;;4.15;;
76667;SDS011;65585;51.166;16.922;2023-05-15T14:55:57;4.88;;;3.97;;
76667;SDS011;65585;51.166;16.922;2023-05-15T14:58:23;4.25;;;3.70;;